sensor_id;sensor_type;location;lat;lon;timestamp;P1;durP1;ratioP1;P2;durP2;ratioP2
72882;SDS011;61017;37.812;-122.286;2023-08-21T00:00:43;12.80;;;9.32;;
72882;SDS011;61017;37.812;-122.286;2023-08-21T00:02:15;11.48;;;9.23;;
72882;SDS011;61017;37.812;-122.286;2023-08-21T00:03:47;12.95;;;9.30;;
72882;SDS011;61017;37.812;-122.286;2023-08-21T00:05:18;12.20;;;9.13;;
72882;SDS011;61017;37.812;-122.286;2023-08-21T00:06:50;13.32;;;9.30;;
72882;SDS011;61017;37.812;-122.286;2023-08-21T00:08:21;11.40;;;9.00;;
72882;SDS011;61017;37.812;-122.286;2023-08-21T00:09:53;12.07;;;9.25;;
72882;SDS011;61017;37.812;-122.286;2023-08-21T00:11:24;10.63;;;9.38;;
72882;SDS011;61017;37.812;-122.286;2023-08-21T00:12:56;12.32;;;9.05;;
72882;SDS011;61017;37.812;-122.286;2023-08-21T00:14:27;12.55;;;9.48;;
72882;SDS011;61017;37.812;-122.286;2023-08-21T00:15:59;13.95;;;9.02;;
72882;SDS011;61017;37.812;-122.286;2023-08-21T00:17:31;13.73;;;9.57;;
72882;SDS011;61017;37.812;-122.286;2023-08-21T00:19:02;13.18;;;9.45;;
72882;SDS011;61017;37.812;-122.286;2023-08-21T00:20:34;15.27;;;9.23;;
72882;SDS011;61017;37.812;-122.286;2023-08-21T00:22:05;12.60;;;9.25;;
72882;SDS011;61017;37.812;-122.286;2023-08-21T00:23:37;13.05;;;9.38;;
72882;SDS011;61017;37.812;-122.286;2023-08-21T00:25:09;13.15;;;9.10;;
72882;SDS011;61017;37.812;-122.286;2023-08-21T00:26:40;12.80;;;9.10;;
72882;SDS011;61017;37.812;-122.286;2023-08-21T00:28:12;13.38;;;9.60;;
72882;SDS011;61017;37.812;-122.286;2023-08-21T00:29:44;12.57;;;9.57;;
72882;SDS011;61017;37.812;-122.286;2023-08-21T00:31:15;13.20;;;9.52;;
72882;SDS011;61017;37.812;-122.286;2023-08-21T00:32:47;14.55;;;10.48;;
72882;SDS011;61017;37.812;-122.286;2023-08-21T00:34:21;12.65;;;9.90;;
72882;SDS011;61017;37.812;-122.286;2023-08-21T00:35:52;14.50;;;10.13;;
72882;SDS011;61017;37.812;-122.286;2023-08-21T00:37:24;14.77;;;9.63;;
72882;SDS011;61017;37.812;-122.286;2023-08-21T00:38:55;15.57;;;9.55;;
72882;SDS011;61017;37.812;-122.286;2023-08-21T00:40:27;14.82;;;10.13;;
72882;SDS011;61017;37.812;-122.286;2023-08-21T00:41:58;12.60;;;9.70;;
72882;SDS011;61017;37.812;-122.286;2023-08-21T00:43:30;12.65;;;9.15;;
72882;SDS011;61017;37.812;-122.286;2023-08-21T00:45:01;13.45;;;9.90;;
72882;SDS011;61017;37.812;-122.286;2023-08-21T00:46:33;14.27;;;9.98;;
72882;SDS011;61017;37.812;-122.286;2023-08-21T00:48:05;11.73;;;9.03;;
72882;SDS011;61017;37.812;-122.286;2023-08-21T00:49:37;12.37;;;9.53;;
72882;SDS011;61017;37.812;-122.286;2023-08-21T00:51:09;11.95;;;9.70;;
72882;SDS011;61017;37.812;-122.286;2023-08-21T00:52:42;12.93;;;9.77;;
72882;SDS011;61017;37.812;-122.286;2023-08-21T00:54:15;13.45;;;9.65;;
72882;SDS011;61017;37.812;-122.286;2023-08-21T00:55:48;13.02;;;9.88;;
72882;SDS011;61017;37.812;-122.286;2023-08-21T00:57:19;11.98;;;9.30;;
72882;SDS011;61017;37.812;-122.286;2023-08-21T00:58:51;13.48;;;9.52;;
72882;SDS011;61017;37.812;-122.286;2023-08-21T01:00:23;14.57;;;9.50;;
72882;SDS011;61017;37.812;-122.286;2023-08-21T01:01:56;13.65;;;9.48;;
72882;SDS011;61017;37.812;-122.286;2023-08-21T01:03:27;13.00;;;9.32;;
72882;SDS011;61017;37.812;-122.286;2023-08-21T01:04:59;13.32;;;9.77;;
72882;SDS011;61017;37.812;-122.286;2023-08-21T01:06:30;13.25;;;9.52;;
72882;SDS011;61017;37.812;-122.286;2023-08-21T01:08:03;16.70;;;9.77;;
72882;SDS011;61017;37.812;-122.286;2023-08-21T01:09:43;12.95;;;9.57;;
72882;SDS011;61017;37.812;-122.286;2023-08-21T01:14:59;13.98;;;9.68;;
72882;SDS011;61017;37.812;-122.286;2023-08-21T01:16:33;14.25;;;8.68;;
72882;SDS011;61017;37.812;-122.286;2023-08-21T01:18:07;13.18;;;8.57;;
72882;SDS011;61017;37.812;-122.286;2023-08-21T01:21:12;13.00;;;9.68;;
72882;SDS011;61017;37.812;-122.286;2023-08-21T01:22:44;13.27;;;9.23;;
72882;SDS011;61017;37.812;-122.286;2023-08-21T01:24:18;10.67;;;9.00;;
72882;SDS011;61017;37.812;-122.286;2023-08-21T01:25:50;12.00;;;9.45;;
72882;SDS011;61017;37.812;-122.286;2023-08-21T01:27:22;13.23;;;9.35;;
72882;SDS011;61017;37.812;-122.286;2023-08-21T01:28:54;12.27;;;8.88;;
72882;SDS011;61017;37.812;-122.286;2023-08-21T01:30:26;13.13;;;9.38;;
72882;SDS011;61017;37.812;-122.286;2023-08-21T01:33:54;11.15;;;8.77;;
72882;SDS011;61017;37.812;-122.286;2023-08-21T01:35:28;11.10;;;8.95;;
72882;SDS011;61017;37.812;-122.286;2023-08-21T01:37:01;12.07;;;9.77;;
72882;SDS011;61017;37.812;-122.286;2023-08-21T01:38:34;11.85;;;8.35;;
72882;SDS011;61017;37.812;-122.286;2023-08-21T01:40:07;10.57;;;8.33;;
72882;SDS011;61017;37.812;-122.286;2023-08-21T01:41:39;10.85;;;9.00;;
72882;SDS011;61017;37.812;-122.286;2023-08-21T01:43:11;11.65;;;8.80;;
72882;SDS011;61017;37.812;-122.286;2023-08-21T01:44:43;13.40;;;8.38;;
72882;SDS011;61017;37.812;-122.286;2023-08-21T01:46:14;11.45;;;8.60;;
72882;SDS011;61017;37.812;-122.286;2023-08-21T01:47:46;10.43;;;8.57;;
72882;SDS011;61017;37.812;-122.286;2023-08-21T01:49:17;13.27;;;8.70;;
72882;SDS011;61017;37.812;-122.286;2023-08-21T01:50:49;11.98;;;8.98;;
72882;SDS011;61017;37.812;-122.286;2023-08-21T01:52:21;11.55;;;8.52;;
72882;SDS011;61017;37.812;-122.286;2023-08-21T01:53:53;12.15;;;8.45;;
72882;SDS011;61017;37.812;-122.286;2023-08-21T01:55:24;10.77;;;8.48;;
72882;SDS011;61017;37.812;-122.286;2023-08-21T01:56:56;11.30;;;8.30;;
72882;SDS011;61017;37.812;-122.286;2023-08-21T01:58:27;10.82;;;8.65;;
72882;SDS011;61017;37.812;-122.286;2023-08-21T02:00:19;10.98;;;8.38;;
72882;SDS011;61017;37.812;-122.286;2023-08-21T02:01:50;11.00;;;8.43;;
72882;SDS011;61017;37.812;-122.286;2023-08-21T02:03:24;13.63;;;7.70;;
72882;SDS011;61017;37.812;-122.286;2023-08-21T02:04:56;12.90;;;8.32;;
72882;SDS011;61017;37.812;-122.286;2023-08-21T02:06:27;12.82;;;8.13;;
72882;SDS011;61017;37.812;-122.286;2023-08-21T02:07:59;12.65;;;7.95;;
72882;SDS011;61017;37.812;-122.286;2023-08-21T02:09:31;9.80;;;7.57;;
72882;SDS011;61017;37.812;-122.286;2023-08-21T02:11:02;12.82;;;8.48;;
72882;SDS011;61017;37.812;-122.286;2023-08-21T02:12:34;11.68;;;7.60;;
72882;SDS011;61017;37.812;-122.286;2023-08-21T02:14:05;10.98;;;7.80;;
72882;SDS011;61017;37.812;-122.286;2023-08-21T02:15:38;11.52;;;7.50;;
72882;SDS011;61017;37.812;-122.286;2023-08-21T02:17:09;11.05;;;8.02;;
72882;SDS011;61017;37.812;-122.286;2023-08-21T02:18:41;10.38;;;7.90;;
72882;SDS011;61017;37.812;-122.286;2023-08-21T02:20:12;12.05;;;7.68;;
72882;SDS011;61017;37.812;-122.286;2023-08-21T02:21:44;10.30;;;7.57;;
72882;SDS011;61017;37.812;-122.286;2023-08-21T02:23:16;10.32;;;7.30;;
72882;SDS011;61017;37.812;-122.286;2023-08-21T02:24:47;10.10;;;7.85;;
72882;SDS011;61017;37.812;-122.286;2023-08-21T02:26:19;10.68;;;7.40;;
72882;SDS011;61017;37.812;-122.286;2023-08-21T02:27:51;10.07;;;7.77;;
72882;SDS011;61017;37.812;-122.286;2023-08-21T02:29:23;12.65;;;7.82;;
72882;SDS011;61017;37.812;-122.286;2023-08-21T02:30:54;9.30;;;7.47;;
72882;SDS011;61017;37.812;-122.286;2023-08-21T02:32:26;10.27;;;7.32;;
72882;SDS011;61017;37.812;-122.286;2023-08-21T02:33:57;11.25;;;7.60;;
72882;SDS011;61017;37.812;-122.286;2023-08-21T02:35:29;9.63;;;6.85;;
72882;SDS011;61017;37.812;-122.286;2023-08-21T02:37:00;9.05;;;7.30;;
72882;SDS011;61017;37.812;-122.286;2023-08-21T02:38:32;10.75;;;7.60;;
72882;SDS011;61017;37.812;-122.286;2023-08-21T02:40:03;10.60;;;7.50;;
72882;SDS011;61017;37.812;-122.286;2023-08-21T02:41:36;11.27;;;7.53;;
72882;SDS011;61017;37.812;-122.286;2023-08-21T02:43:08;11.43;;;7.80;;
72882;SDS011;61017;37.812;-122.286;2023-08-21T02:44:40;9.35;;;7.10;;
72882;SDS011;61017;37.812;-122.286;2023-08-21T02:46:12;10.77;;;7.40;;
72882;SDS011;61017;37.812;-122.286;2023-08-21T02:47:43;11.60;;;7.68;;
72882;SDS011;61017;37.812;-122.286;2023-08-21T02:49:15;10.98;;;7.45;;
72882;SDS011;61017;37.812;-122.286;2023-08-21T02:50:47;10.90;;;7.07;;
72882;SDS011;61017;37.812;-122.286;2023-08-21T02:52:19;12.20;;;7.10;;
72882;SDS011;61017;37.812;-122.286;2023-08-21T02:53:51;13.55;;;7.93;;
72882;SDS011;61017;37.812;-122.286;2023-08-21T02:55:22;10.63;;;7.30;;
72882;SDS011;61017;37.812;-122.286;2023-08-21T02:56:54;12.27;;;7.60;;
72882;SDS011;61017;37.812;-122.286;2023-08-21T02:58:25;13.63;;;7.45;;
72882;SDS011;61017;37.812;-122.286;2023-08-21T02:59:57;12.55;;;7.07;;
72882;SDS011;61017;37.812;-122.286;2023-08-21T03:01:28;14.10;;;7.35;;
72882;SDS011;61017;37.812;-122.286;2023-08-21T03:03:00;10.75;;;7.35;;
72882;SDS011;61017;37.812;-122.286;2023-08-21T03:04:31;10.75;;;7.38;;
72882;SDS011;61017;37.812;-122.286;2023-08-21T03:06:04;11.05;;;7.32;;
72882;SDS011;61017;37.812;-122.286;2023-08-21T03:07:35;13.77;;;7.28;;
72882;SDS011;61017;37.812;-122.286;2023-08-21T03:09:07;10.38;;;7.10;;
72882;SDS011;61017;37.812;-122.286;2023-08-21T03:10:39;11.10;;;7.30;;
72882;SDS011;61017;37.812;-122.286;2023-08-21T03:12:10;14.25;;;8.00;;
72882;SDS011;61017;37.812;-122.286;2023-08-21T03:13:42;11.45;;;7.00;;
72882;SDS011;61017;37.812;-122.286;2023-08-21T03:15:13;12.68;;;7.10;;
72882;SDS011;61017;37.812;-122.286;2023-08-21T03:16:45;12.73;;;7.50;;
72882;SDS011;61017;37.812;-122.286;2023-08-21T03:18:16;12.63;;;7.53;;
72882;SDS011;61017;37.812;-122.286;2023-08-21T03:19:48;12.25;;;7.57;;
72882;SDS011;61017;37.812;-122.286;2023-08-21T03:21:20;12.57;;;7.28;;
72882;SDS011;61017;37.812;-122.286;2023-08-21T03:22:52;13.13;;;6.97;;
72882;SDS011;61017;37.812;-122.286;2023-08-21T03:24:23;11.25;;;7.18;;
72882;SDS011;61017;37.812;-122.286;2023-08-21T03:25:55;12.70;;;7.15;;
72882;SDS011;61017;37.812;-122.286;2023-08-21T03:27:26;12.88;;;7.65;;
72882;SDS011;61017;37.812;-122.286;2023-08-21T03:28:58;13.95;;;7.78;;
72882;SDS011;61017;37.812;-122.286;2023-08-21T03:30:29;14.07;;;7.25;;
72882;SDS011;61017;37.812;-122.286;2023-08-21T03:32:01;12.68;;;6.90;;
72882;SDS011;61017;37.812;-122.286;2023-08-21T03:33:33;13.52;;;6.93;;
72882;SDS011;61017;37.812;-122.286;2023-08-21T03:35:05;12.18;;;7.20;;
72882;SDS011;61017;37.812;-122.286;2023-08-21T03:36:36;14.63;;;7.15;;
72882;SDS011;61017;37.812;-122.286;2023-08-21T03:38:08;13.35;;;7.07;;
72882;SDS011;61017;37.812;-122.286;2023-08-21T03:39:39;11.32;;;6.70;;
72882;SDS011;61017;37.812;-122.286;2023-08-21T03:41:11;12.50;;;7.20;;
72882;SDS011;61017;37.812;-122.286;2023-08-21T03:42:42;13.73;;;7.40;;
72882;SDS011;61017;37.812;-122.286;2023-08-21T03:44:14;15.63;;;7.72;;
72882;SDS011;61017;37.812;-122.286;2023-08-21T03:45:45;14.10;;;7.30;;
72882;SDS011;61017;37.812;-122.286;2023-08-21T03:47:17;12.00;;;6.90;;
72882;SDS011;61017;37.812;-122.286;2023-08-21T03:48:49;13.10;;;7.10;;
72882;SDS011;61017;37.812;-122.286;2023-08-21T03:50:22;16.77;;;7.75;;
72882;SDS011;61017;37.812;-122.286;2023-08-21T03:51:53;14.00;;;7.78;;
72882;SDS011;61017;37.812;-122.286;2023-08-21T03:53:25;12.10;;;7.05;;
72882;SDS011;61017;37.812;-122.286;2023-08-21T03:54:57;14.35;;;7.35;;
72882;SDS011;61017;37.812;-122.286;2023-08-21T03:56:28;13.65;;;7.22;;
72882;SDS011;61017;37.812;-122.286;2023-08-21T03:58:00;12.07;;;7.00;;
72882;SDS011;61017;37.812;-122.286;2023-08-21T03:59:32;12.00;;;6.95;;
72882;SDS011;61017;37.812;-122.286;2023-08-21T04:01:03;12.70;;;7.28;;
72882;SDS011;61017;37.812;-122.286;2023-08-21T04:02:35;13.10;;;7.35;;
72882;SDS011;61017;37.812;-122.286;2023-08-21T04:04:07;13.05;;;7.32;;
72882;SDS011;61017;37.812;-122.286;2023-08-21T04:05:38;14.35;;;7.60;;
72882;SDS011;61017;37.812;-122.286;2023-08-21T04:07:10;11.43;;;7.05;;
72882;SDS011;61017;37.812;-122.286;2023-08-21T04:08:42;15.27;;;7.15;;
72882;SDS011;61017;37.812;-122.286;2023-08-21T04:10:14;14.18;;;6.93;;
72882;SDS011;61017;37.812;-122.286;2023-08-21T04:11:46;14.07;;;7.40;;
72882;SDS011;61017;37.812;-122.286;2023-08-21T04:13:17;11.82;;;7.45;;
72882;SDS011;61017;37.812;-122.286;2023-08-21T04:14:49;13.57;;;6.88;;
72882;SDS011;61017;37.812;-122.286;2023-08-21T04:16:21;12.10;;;6.85;;
72882;SDS011;61017;37.812;-122.286;2023-08-21T04:17:52;14.82;;;7.55;;
72882;SDS011;61017;37.812;-122.286;2023-08-21T04:19:24;13.65;;;6.80;;
72882;SDS011;61017;37.812;-122.286;2023-08-21T04:20:55;14.35;;;7.50;;
72882;SDS011;61017;37.812;-122.286;2023-08-21T04:22:27;12.55;;;7.38;;
72882;SDS011;61017;37.812;-122.286;2023-08-21T04:23:59;12.90;;;7.18;;
72882;SDS011;61017;37.812;-122.286;2023-08-21T04:25:30;13.23;;;6.88;;
72882;SDS011;61017;37.812;-122.286;2023-08-21T04:27:02;12.65;;;6.70;;
72882;SDS011;61017;37.812;-122.286;2023-08-21T04:28:35;12.55;;;6.85;;
72882;SDS011;61017;37.812;-122.286;2023-08-21T04:30:07;12.93;;;6.65;;
72882;SDS011;61017;37.812;-122.286;2023-08-21T04:31:40;16.50;;;7.22;;
72882;SDS011;61017;37.812;-122.286;2023-08-21T04:33:11;13.15;;;6.85;;
72882;SDS011;61017;37.812;-122.286;2023-08-21T04:34:43;14.63;;;7.03;;
72882;SDS011;61017;37.812;-122.286;2023-08-21T04:36:15;14.45;;;7.30;;
72882;SDS011;61017;37.812;-122.286;2023-08-21T04:37:47;13.32;;;6.97;;
72882;SDS011;61017;37.812;-122.286;2023-08-21T04:39:19;12.75;;;6.65;;
72882;SDS011;61017;37.812;-122.286;2023-08-21T04:40:50;12.68;;;6.82;;
72882;SDS011;61017;37.812;-122.286;2023-08-21T04:42:22;13.30;;;6.90;;
72882;SDS011;61017;37.812;-122.286;2023-08-21T04:43:53;15.90;;;7.15;;
72882;SDS011;61017;37.812;-122.286;2023-08-21T04:45:25;13.80;;;7.05;;
72882;SDS011;61017;37.812;-122.286;2023-08-21T04:46:56;11.80;;;6.63;;
72882;SDS011;61017;37.812;-122.286;2023-08-21T04:48:28;13.10;;;6.63;;
72882;SDS011;61017;37.812;-122.286;2023-08-21T04:49:59;13.35;;;6.82;;
72882;SDS011;61017;37.812;-122.286;2023-08-21T04:51:31;14.43;;;7.25;;
72882;SDS011;61017;37.812;-122.286;2023-08-21T04:53:02;13.90;;;6.25;;
72882;SDS011;61017;37.812;-122.286;2023-08-21T04:54:34;12.68;;;6.65;;
72882;SDS011;61017;37.812;-122.286;2023-08-21T04:56:05;12.35;;;6.18;;
72882;SDS011;61017;37.812;-122.286;2023-08-21T04:57:37;13.15;;;7.00;;
72882;SDS011;61017;37.812;-122.286;2023-08-21T04:59:09;12.73;;;6.55;;
72882;SDS011;61017;37.812;-122.286;2023-08-21T05:00:40;12.10;;;6.82;;
72882;SDS011;61017;37.812;-122.286;2023-08-21T05:02:12;12.40;;;6.65;;
72882;SDS011;61017;37.812;-122.286;2023-08-21T05:03:43;15.95;;;6.93;;
72882;SDS011;61017;37.812;-122.286;2023-08-21T05:05:15;13.23;;;7.00;;
72882;SDS011;61017;37.812;-122.286;2023-08-21T05:06:46;12.50;;;6.38;;
72882;SDS011;61017;37.812;-122.286;2023-08-21T05:08:18;13.95;;;6.70;;
72882;SDS011;61017;37.812;-122.286;2023-08-21T05:09:49;11.95;;;6.40;;
72882;SDS011;61017;37.812;-122.286;2023-08-21T05:11:21;13.80;;;6.63;;
72882;SDS011;61017;37.812;-122.286;2023-08-21T05:12:52;11.35;;;6.47;;
72882;SDS011;61017;37.812;-122.286;2023-08-21T05:14:24;14.13;;;6.57;;
72882;SDS011;61017;37.812;-122.286;2023-08-21T05:15:56;13.25;;;6.60;;
72882;SDS011;61017;37.812;-122.286;2023-08-21T05:17:28;13.40;;;6.78;;
72882;SDS011;61017;37.812;-122.286;2023-08-21T05:19:00;12.65;;;6.50;;
72882;SDS011;61017;37.812;-122.286;2023-08-21T05:20:31;13.38;;;6.47;;
72882;SDS011;61017;37.812;-122.286;2023-08-21T05:22:03;12.25;;;6.22;;
72882;SDS011;61017;37.812;-122.286;2023-08-21T05:23:34;11.50;;;6.43;;
72882;SDS011;61017;37.812;-122.286;2023-08-21T05:25:06;14.07;;;6.80;;
72882;SDS011;61017;37.812;-122.286;2023-08-21T05:26:38;12.07;;;6.65;;
72882;SDS011;61017;37.812;-122.286;2023-08-21T05:28:10;11.85;;;6.60;;
72882;SDS011;61017;37.812;-122.286;2023-08-21T05:29:41;14.43;;;7.10;;
72882;SDS011;61017;37.812;-122.286;2023-08-21T05:31:13;13.88;;;6.53;;
72882;SDS011;61017;37.812;-122.286;2023-08-21T05:32:45;12.30;;;6.63;;
72882;SDS011;61017;37.812;-122.286;2023-08-21T05:34:16;13.50;;;6.97;;
72882;SDS011;61017;37.812;-122.286;2023-08-21T05:35:48;13.90;;;6.40;;
72882;SDS011;61017;37.812;-122.286;2023-08-21T05:37:19;13.35;;;6.35;;
72882;SDS011;61017;37.812;-122.286;2023-08-21T05:38:51;14.27;;;6.65;;
72882;SDS011;61017;37.812;-122.286;2023-08-21T05:40:22;12.80;;;6.82;;
72882;SDS011;61017;37.812;-122.286;2023-08-21T05:41:54;12.52;;;6.60;;
72882;SDS011;61017;37.812;-122.286;2023-08-21T05:43:25;13.82;;;6.43;;
72882;SDS011;61017;37.812;-122.286;2023-08-21T05:44:57;13.32;;;6.78;;
72882;SDS011;61017;37.812;-122.286;2023-08-21T05:46:28;12.80;;;6.63;;
72882;SDS011;61017;37.812;-122.286;2023-08-21T05:48:00;12.82;;;6.57;;
72882;SDS011;61017;37.812;-122.286;2023-08-21T05:49:32;13.18;;;6.50;;
72882;SDS011;61017;37.812;-122.286;2023-08-21T05:51:03;13.50;;;6.97;;
72882;SDS011;61017;37.812;-122.286;2023-08-21T05:52:35;14.90;;;6.75;;
72882;SDS011;61017;37.812;-122.286;2023-08-21T05:54:06;12.77;;;6.10;;
72882;SDS011;61017;37.812;-122.286;2023-08-21T05:55:38;11.63;;;6.22;;
72882;SDS011;61017;37.812;-122.286;2023-08-21T05:57:09;13.30;;;6.43;;
72882;SDS011;61017;37.812;-122.286;2023-08-21T05:58:42;15.10;;;6.60;;
72882;SDS011;61017;37.812;-122.286;2023-08-21T06:00:13;12.13;;;6.30;;
72882;SDS011;61017;37.812;-122.286;2023-08-21T06:01:45;13.30;;;6.10;;
72882;SDS011;61017;37.812;-122.286;2023-08-21T06:03:17;13.70;;;6.40;;
72882;SDS011;61017;37.812;-122.286;2023-08-21T06:04:49;14.23;;;6.72;;
72882;SDS011;61017;37.812;-122.286;2023-08-21T06:06:21;13.73;;;6.43;;
72882;SDS011;61017;37.812;-122.286;2023-08-21T06:07:52;11.95;;;6.60;;
72882;SDS011;61017;37.812;-122.286;2023-08-21T06:09:24;13.23;;;6.38;;
72882;SDS011;61017;37.812;-122.286;2023-08-21T06:10:55;13.88;;;6.35;;
72882;SDS011;61017;37.812;-122.286;2023-08-21T06:12:27;15.20;;;7.32;;
72882;SDS011;61017;37.812;-122.286;2023-08-21T06:13:58;13.60;;;6.30;;
72882;SDS011;61017;37.812;-122.286;2023-08-21T06:15:30;14.23;;;6.90;;
72882;SDS011;61017;37.812;-122.286;2023-08-21T06:17:02;14.02;;;6.63;;
72882;SDS011;61017;37.812;-122.286;2023-08-21T06:18:34;13.27;;;6.55;;
72882;SDS011;61017;37.812;-122.286;2023-08-21T06:20:06;12.68;;;6.68;;
72882;SDS011;61017;37.812;-122.286;2023-08-21T06:21:38;13.80;;;6.53;;
72882;SDS011;61017;37.812;-122.286;2023-08-21T06:23:10;13.07;;;6.53;;
72882;SDS011;61017;37.812;-122.286;2023-08-21T06:24:42;15.05;;;6.95;;
72882;SDS011;61017;37.812;-122.286;2023-08-21T06:26:13;14.55;;;6.40;;
72882;SDS011;61017;37.812;-122.286;2023-08-21T06:27:45;15.57;;;6.75;;
72882;SDS011;61017;37.812;-122.286;2023-08-21T06:29:16;14.15;;;6.90;;
72882;SDS011;61017;37.812;-122.286;2023-08-21T06:30:55;12.75;;;6.80;;
72882;SDS011;61017;37.812;-122.286;2023-08-21T06:32:27;12.45;;;6.57;;
72882;SDS011;61017;37.812;-122.286;2023-08-21T06:33:58;13.45;;;6.70;;
72882;SDS011;61017;37.812;-122.286;2023-08-21T06:35:30;14.00;;;6.90;;
72882;SDS011;61017;37.812;-122.286;2023-08-21T06:37:02;11.77;;;6.78;;
72882;SDS011;61017;37.812;-122.286;2023-08-21T06:38:33;11.23;;;6.20;;
72882;SDS011;61017;37.812;-122.286;2023-08-21T06:40:05;13.18;;;6.72;;
72882;SDS011;61017;37.812;-122.286;2023-08-21T06:41:37;11.95;;;6.60;;
72882;SDS011;61017;37.812;-122.286;2023-08-21T06:43:09;10.70;;;6.32;;
72882;SDS011;61017;37.812;-122.286;2023-08-21T06:44:40;11.20;;;6.45;;
72882;SDS011;61017;37.812;-122.286;2023-08-21T06:46:12;13.68;;;6.80;;
72882;SDS011;61017;37.812;-122.286;2023-08-21T06:47:44;11.70;;;6.43;;
72882;SDS011;61017;37.812;-122.286;2023-08-21T06:49:15;12.35;;;6.43;;
72882;SDS011;61017;37.812;-122.286;2023-08-21T06:50:47;11.48;;;6.28;;
72882;SDS011;61017;37.812;-122.286;2023-08-21T06:52:18;13.38;;;6.30;;
72882;SDS011;61017;37.812;-122.286;2023-08-21T06:53:50;13.13;;;7.00;;
72882;SDS011;61017;37.812;-122.286;2023-08-21T06:55:21;14.48;;;6.63;;
72882;SDS011;61017;37.812;-122.286;2023-08-21T06:56:53;11.25;;;6.20;;
72882;SDS011;61017;37.812;-122.286;2023-08-21T06:58:24;13.10;;;6.60;;
72882;SDS011;61017;37.812;-122.286;2023-08-21T06:59:56;12.63;;;6.10;;
72882;SDS011;61017;37.812;-122.286;2023-08-21T07:01:28;10.75;;;6.13;;
72882;SDS011;61017;37.812;-122.286;2023-08-21T07:02:59;12.02;;;6.55;;
72882;SDS011;61017;37.812;-122.286;2023-08-21T07:04:31;12.02;;;6.78;;
72882;SDS011;61017;37.812;-122.286;2023-08-21T07:06:02;10.13;;;5.90;;
72882;SDS011;61017;37.812;-122.286;2023-08-21T07:07:34;12.05;;;6.60;;
72882;SDS011;61017;37.812;-122.286;2023-08-21T07:09:05;12.05;;;6.68;;
72882;SDS011;61017;37.812;-122.286;2023-08-21T07:10:37;11.50;;;6.45;;
72882;SDS011;61017;37.812;-122.286;2023-08-21T07:12:08;11.07;;;6.20;;
72882;SDS011;61017;37.812;-122.286;2023-08-21T07:13:40;9.77;;;6.43;;
72882;SDS011;61017;37.812;-122.286;2023-08-21T07:15:12;10.48;;;6.35;;
72882;SDS011;61017;37.812;-122.286;2023-08-21T07:16:43;10.43;;;6.25;;
72882;SDS011;61017;37.812;-122.286;2023-08-21T07:19:47;11.02;;;6.40;;
72882;SDS011;61017;37.812;-122.286;2023-08-21T07:21:19;10.13;;;6.32;;
72882;SDS011;61017;37.812;-122.286;2023-08-21T07:22:50;11.00;;;6.32;;
72882;SDS011;61017;37.812;-122.286;2023-08-21T07:24:22;10.07;;;5.97;;
72882;SDS011;61017;37.812;-122.286;2023-08-21T07:25:53;11.00;;;6.68;;
72882;SDS011;61017;37.812;-122.286;2023-08-21T07:27:25;10.25;;;6.03;;
72882;SDS011;61017;37.812;-122.286;2023-08-21T07:28:56;12.30;;;6.35;;
72882;SDS011;61017;37.812;-122.286;2023-08-21T07:30:28;10.57;;;6.28;;
72882;SDS011;61017;37.812;-122.286;2023-08-21T07:32:01;10.95;;;6.47;;
72882;SDS011;61017;37.812;-122.286;2023-08-21T07:35:04;10.73;;;6.10;;
72882;SDS011;61017;37.812;-122.286;2023-08-21T07:36:36;11.27;;;6.05;;
72882;SDS011;61017;37.812;-122.286;2023-08-21T07:38:07;9.82;;;6.22;;
72882;SDS011;61017;37.812;-122.286;2023-08-21T07:39:39;10.48;;;6.40;;
72882;SDS011;61017;37.812;-122.286;2023-08-21T07:41:10;10.80;;;6.57;;
72882;SDS011;61017;37.812;-122.286;2023-08-21T07:44:14;13.35;;;6.97;;
72882;SDS011;61017;37.812;-122.286;2023-08-21T07:45:46;10.10;;;6.28;;
72882;SDS011;61017;37.812;-122.286;2023-08-21T07:47:17;10.52;;;6.30;;
72882;SDS011;61017;37.812;-122.286;2023-08-21T07:48:49;10.60;;;6.13;;
72882;SDS011;61017;37.812;-122.286;2023-08-21T07:50:20;11.13;;;6.22;;
72882;SDS011;61017;37.812;-122.286;2023-08-21T07:51:52;10.50;;;6.18;;
72882;SDS011;61017;37.812;-122.286;2023-08-21T07:53:24;10.73;;;6.78;;
72882;SDS011;61017;37.812;-122.286;2023-08-21T07:54:56;11.70;;;6.75;;
72882;SDS011;61017;37.812;-122.286;2023-08-21T07:56:27;11.95;;;6.40;;
72882;SDS011;61017;37.812;-122.286;2023-08-21T07:57:59;11.45;;;6.38;;
72882;SDS011;61017;37.812;-122.286;2023-08-21T07:59:30;10.30;;;6.32;;
72882;SDS011;61017;37.812;-122.286;2023-08-21T08:01:02;10.63;;;6.70;;
72882;SDS011;61017;37.812;-122.286;2023-08-21T08:02:34;11.50;;;6.38;;
72882;SDS011;61017;37.812;-122.286;2023-08-21T08:04:05;9.95;;;6.50;;
72882;SDS011;61017;37.812;-122.286;2023-08-21T08:05:37;10.00;;;6.28;;
72882;SDS011;61017;37.812;-122.286;2023-08-21T08:07:08;11.23;;;6.50;;
72882;SDS011;61017;37.812;-122.286;2023-08-21T08:08:40;10.68;;;5.85;;
72882;SDS011;61017;37.812;-122.286;2023-08-21T08:10:12;11.52;;;6.32;;
72882;SDS011;61017;37.812;-122.286;2023-08-21T08:11:43;10.93;;;6.13;;
72882;SDS011;61017;37.812;-122.286;2023-08-21T08:13:15;10.65;;;6.22;;
72882;SDS011;61017;37.812;-122.286;2023-08-21T08:14:46;10.50;;;6.43;;
72882;SDS011;61017;37.812;-122.286;2023-08-21T08:16:18;10.43;;;6.38;;
72882;SDS011;61017;37.812;-122.286;2023-08-21T08:17:49;10.32;;;6.45;;
72882;SDS011;61017;37.812;-122.286;2023-08-21T08:19:21;10.65;;;6.40;;
72882;SDS011;61017;37.812;-122.286;2023-08-21T08:20:52;12.35;;;6.63;;
72882;SDS011;61017;37.812;-122.286;2023-08-21T08:22:24;10.98;;;6.38;;
72882;SDS011;61017;37.812;-122.286;2023-08-21T08:23:56;11.73;;;6.43;;
72882;SDS011;61017;37.812;-122.286;2023-08-21T08:25:27;10.65;;;5.85;;
72882;SDS011;61017;37.812;-122.286;2023-08-21T08:26:59;9.90;;;6.25;;
72882;SDS011;61017;37.812;-122.286;2023-08-21T08:28:30;10.40;;;6.55;;
72882;SDS011;61017;37.812;-122.286;2023-08-21T08:30:02;10.88;;;6.07;;
72882;SDS011;61017;37.812;-122.286;2023-08-21T08:31:34;12.98;;;6.25;;
72882;SDS011;61017;37.812;-122.286;2023-08-21T08:33:06;12.73;;;6.28;;
72882;SDS011;61017;37.812;-122.286;2023-08-21T08:34:37;11.55;;;6.38;;
72882;SDS011;61017;37.812;-122.286;2023-08-21T08:36:09;12.48;;;6.53;;
72882;SDS011;61017;37.812;-122.286;2023-08-21T08:37:41;10.07;;;5.90;;
72882;SDS011;61017;37.812;-122.286;2023-08-21T08:39:12;12.50;;;6.27;;
72882;SDS011;61017;37.812;-122.286;2023-08-21T08:40:47;9.48;;;5.90;;
72882;SDS011;61017;37.812;-122.286;2023-08-21T08:42:21;10.70;;;6.72;;
72882;SDS011;61017;37.812;-122.286;2023-08-21T08:43:54;11.18;;;6.72;;
72882;SDS011;61017;37.812;-122.286;2023-08-21T08:45:28;12.27;;;6.05;;
72882;SDS011;61017;37.812;-122.286;2023-08-21T08:48:32;11.48;;;6.28;;
72882;SDS011;61017;37.812;-122.286;2023-08-21T08:50:07;9.65;;;5.88;;
72882;SDS011;61017;37.812;-122.286;2023-08-21T08:51:39;9.38;;;5.80;;
72882;SDS011;61017;37.812;-122.286;2023-08-21T08:53:12;11.68;;;6.32;;
72882;SDS011;61017;37.812;-122.286;2023-08-21T08:54:44;11.38;;;6.30;;